SBCY Airport Information

Runway Information
Runway 17 Length 7546 ft width 148 ft
Elevation 0 ft Threshold 0 ft Heading 0
Runway 35 Length 7546 ft Width 148 ft
Elevation 0 ft Threshold 0 ft Heading 0
Airport Frequencies
Type APP Name CUIABA APP Frequency 119.4 MHZ
Type TWR Name CUIABA TWR Frequency 118.1 MHZ
Airport Navaids
Type VOR-DME Name Cuiaba Frequency 113700 KHZ
Type NDB Name Cuiaba Frequency 380 KHZ
Airport Weather Information & NOTAM
ADDS - METARS form results

(2238 UTC 20 June 2018)
 
METAR text: SBCY 202200Z 00000KT CAVOK 27/13 Q1016
Conditions at: SBCY (CUIABA/MARECHAL , BR) observed 2200 UTC 20 June 2018
Temperature: 27.0°C (81°F)
Dewpoint: 13.0°C (55°F) [RH = 42%]
Pressure (altimeter): 30.00 inches Hg (1016.0 mb)
Winds: calm
Visibility: 6 or more miles (10+ km)
Ceiling: ceiling and visibility are OK
Clouds: unknown
Weather: no significant weather observed at this time